Time;durP1;ratioP1;P1;durP2;ratioP2;P2;SDS_P1;SDS_P2;PMS_P1;PMS_P2;Temp;Humidity;BMP_temperature;BMP_pressure;BME280_temperature;BME280_humidity;BME280_pressure;Samples;Min_cycle;Max_cycle;Signal;HPM_P1;HPM_P2
2022/03/23 00:01:36;;;;;;;22.70;12.05;;;;;;;4.39;45.77;102470.03;5054828;28;20053;-73
2022/03/23 00:04:04;;;;;;;27.30;13.93;;;;;;;4.61;44.15;102471.94;5057243;28;20056;-73
2022/03/23 00:06:33;;;;;;;22.98;12.85;;;;;;;4.58;44.27;102475.88;5057121;28;20076;-70
2022/03/23 00:09:02;;;;;;;23.05;13.20;;;;;;;4.49;45.84;102469.72;5047575;28;20057;-73
2022/03/23 00:11:30;;;;;;;26.73;14.60;;;;;;;4.43;45.04;102476.78;5051974;28;20060;-73
2022/03/23 00:13:58;;;;;;;23.10;13.70;;;;;;;4.36;44.96;102477.72;5055572;28;20052;-73
2022/03/23 00:16:26;;;;;;;24.40;13.98;;;;;;;4.29;44.83;102469.50;5053709;28;20406;-73
2022/03/23 00:18:54;;;;;;;29.00;13.60;;;;;;;4.23;45.03;102468.41;5057947;28;20067;-73
2022/03/23 00:21:22;;;;;;;25.73;12.23;;;;;;;4.19;45.38;102464.38;5053924;28;20430;-70
2022/03/23 00:23:50;;;;;;;21.73;12.20;;;;;;;4.21;45.45;102467.72;5053137;28;20410;-70
2022/03/23 00:26:18;;;;;;;28.30;13.27;;;;;;;4.29;45.53;102462.22;5044158;28;20049;-70
2022/03/23 00:28:48;;;;;;;23.92;12.80;;;;;;;4.28;45.19;102457.84;5047481;28;20052;-70
2022/03/23 00:31:18;;;;;;;22.88;12.98;;;;;;;4.24;45.77;102475.50;5053751;28;20406;-70
2022/03/23 00:33:47;;;;;;;22.40;12.82;;;;;;;4.38;45.87;102453.97;5054586;28;20529;-70
2022/03/23 00:36:18;;;;;;;23.70;11.15;;;;;;;4.55;44.82;102457.28;5053382;28;20502;-70
2022/03/23 00:38:47;;;;;;;19.65;11.68;;;;;;;4.65;44.04;102465.91;5020004;28;20049;-70
2022/03/23 00:41:15;;;;;;;22.63;12.13;;;;;;;4.60;44.16;102467.53;5035645;28;20049;-70
2022/03/23 00:43:43;;;;;;;24.13;13.23;;;;;;;4.44;44.60;102456.75;5052575;28;20049;-70
2022/03/23 00:46:11;;;;;;;19.27;11.93;;;;;;;4.38;44.26;102456.66;5028218;28;20045;-70
2022/03/23 00:48:39;;;;;;;20.48;12.13;;;;;;;4.44;43.97;102451.31;5041690;28;20060;-70
2022/03/23 00:51:07;;;;;;;20.13;11.55;;;;;;;4.28;44.58;102451.56;5032193;28;20057;-70
2022/03/23 00:53:34;;;;;;;18.92;11.40;;;;;;;4.39;43.64;102455.63;5054398;28;20044;-70
2022/03/23 00:56:04;;;;;;;22.10;11.68;;;;;;;4.32;43.98;102452.88;5031461;28;20049;-71
2022/03/23 00:58:32;;;;;;;22.45;11.25;;;;;;;4.21;44.61;102446.06;5053467;28;20049;-71
2022/03/23 01:01:00;;;;;;;20.98;11.40;;;;;;;4.08;44.64;102449.47;5053159;28;20403;-70
2022/03/23 01:03:29;;;;;;;26.10;11.90;;;;;;;3.98;45.37;102441.66;5053203;28;20052;-73
2022/03/23 01:05:57;;;;;;;23.45;11.77;;;;;;;3.92;45.63;102445.09;5052984;28;20049;-70
2022/03/23 01:08:25;;;;;;;23.35;11.23;;;;;;;4.09;44.93;102447.56;5053122;28;20045;-70
2022/03/23 01:10:54;;;;;;;23.40;11.68;;;;;;;4.07;45.17;102441.53;5045628;28;20579;-70
2022/03/23 01:13:22;;;;;;;23.17;11.60;;;;;;;4.06;45.30;102432.53;5048127;28;20447;-70
2022/03/23 01:15:50;;;;;;;20.98;11.57;;;;;;;4.09;45.74;102428.63;5035483;28;20045;-70
2022/03/23 01:18:18;;;;;;;26.13;11.63;;;;;;;4.17;45.21;102434.75;5051355;28;20399;-70
2022/03/23 01:20:46;;;;;;;22.35;11.85;;;;;;;4.38;44.43;102427.69;5039794;28;20056;-70
2022/03/23 01:23:14;;;;;;;21.20;11.70;;;;;;;4.36;44.23;102437.06;5051680;28;20049;-70
2022/03/23 01:25:42;;;;;;;23.77;11.95;;;;;;;4.25;43.90;102424.84;5052606;28;20398;-70
2022/03/23 01:28:10;;;;;;;22.50;11.15;;;;;;;4.15;43.69;102422.44;5033559;28;20410;-70
2022/03/23 01:30:38;;;;;;;22.73;11.40;;;;;;;4.05;45.38;102419.22;5022872;28;20063;-70
2022/03/23 01:33:06;;;;;;;21.80;11.52;;;;;;;3.90;44.53;102411.94;5043971;28;20494;-70
2022/03/23 01:35:34;;;;;;;23.52;12.40;;;;;;;3.84;45.89;102418.09;5033839;28;20049;-70
2022/03/23 01:38:02;;;;;;;26.00;11.48;;;;;;;3.73;44.86;102417.56;5050321;28;20048;-70
2022/03/23 01:40:30;;;;;;;25.52;11.60;;;;;;;3.67;45.27;102418.31;5034958;28;20056;-70
2022/03/23 01:42:58;;;;;;;16.95;10.00;;;;;;;3.63;45.41;102411.59;5049320;28;20065;-70
2022/03/23 01:45:27;;;;;;;19.30;10.05;;;;;;;3.64;45.36;102410.56;5051227;28;20049;-70
2022/03/23 01:47:55;;;;;;;18.13;10.65;;;;;;;3.60;45.22;102410.13;5052429;28;20049;-70
2022/03/23 01:50:23;;;;;;;22.60;10.95;;;;;;;3.55;45.48;102411.69;5052525;28;20075;-71
2022/03/23 01:52:51;;;;;;;17.45;9.60;;;;;;;3.54;45.25;102404.59;5052056;28;20402;-70
2022/03/23 01:55:20;;;;;;;16.08;9.70;;;;;;;3.51;46.06;102400.41;5034372;28;20517;-70
2022/03/23 01:57:51;;;;;;;17.77;8.98;;;;;;;3.54;44.69;102399.19;5052144;28;20426;-70
2022/03/23 02:00:20;;;;;;;15.20;8.80;;;;;;;3.57;45.25;102401.53;5052998;28;20048;-70
2022/03/23 02:02:49;;;;;;;16.38;9.73;;;;;;;3.65;45.14;102404.13;5035027;28;20049;-73
2022/03/23 02:05:17;;;;;;;16.40;9.98;;;;;;;3.90;43.67;102407.38;5034044;28;20044;-73
2022/03/23 02:07:51;;;;;;;22.17;10.05;;;;;;;3.80;44.47;102398.69;5029255;28;20060;-73
2022/03/23 02:10:20;;;;;;;15.80;9.85;;;;;;;3.72;43.87;102405.03;5031614;28;20056;-73
2022/03/23 02:12:58;;;;;;;16.90;10.07;;;;;;;3.79;43.91;102402.44;5016935;28;20495;-73
2022/03/23 02:15:28;;;;;;;18.33;10.52;;;;;;;3.73;44.63;102400.47;5046995;28;20049;-71
2022/03/23 02:17:57;;;;;;;16.55;9.50;;;;;;;3.64;44.70;102402.47;5050823;28;20049;-70
2022/03/23 02:20:25;;;;;;;16.05;8.23;;;;;;;3.56;45.09;102399.84;5033026;28;20049;-70
2022/03/23 02:22:54;;;;;;;19.92;9.60;;;;;;;3.46;44.44;102395.56;5033947;28;20045;-70
2022/03/23 02:25:27;;;;;;;20.30;10.35;;;;;;;3.41;45.64;102387.16;5051267;28;20399;-70
2022/03/23 02:27:56;;;;;;;15.18;8.57;;;;;;;3.38;45.55;102398.38;5051651;28;20439;-71
2022/03/23 02:30:24;;;;;;;18.42;8.82;;;;;;;3.33;45.27;102395.38;5051201;28;20088;-70
2022/03/23 02:32:52;;;;;;;18.42;10.15;;;;;;;3.29;45.63;102392.22;5051292;28;20053;-70
2022/03/23 02:35:50;;;;;;;18.58;9.70;;;;;;;3.28;45.56;102389.69;5052508;28;20390;-72
2022/03/23 02:38:23;;;;;;;17.60;9.48;;;;;;;3.27;46.11;102386.13;5021854;28;20056;-71
2022/03/23 02:40:54;;;;;;;16.13;8.68;;;;;;;3.26;46.42;102383.59;5033977;28;20045;-71
2022/03/23 02:43:22;;;;;;;17.02;9.25;;;;;;;3.20;45.74;102380.63;5049749;28;20048;-71
2022/03/23 02:45:50;;;;;;;16.23;8.55;;;;;;;3.21;45.52;102385.00;5051370;28;20041;-71
2022/03/23 02:48:18;;;;;;;20.40;9.43;;;;;;;3.18;45.79;102387.25;5018007;28;20048;-71
2022/03/23 02:50:46;;;;;;;14.05;8.18;;;;;;;3.14;45.49;102375.09;5052023;28;20399;-71
2022/03/23 03:02:01;;;;;;;14.32;8.32;;;;;;;2.98;45.18;102362.59;5041599;28;20060;-71
2022/03/23 03:04:29;;;;;;;13.13;8.45;;;;;;;3.00;45.68;102376.78;5040393;28;20064;-71
2022/03/23 03:07:00;;;;;;;14.63;8.63;;;;;;;3.05;45.78;102375.22;5050987;28;20052;-71
2022/03/23 03:09:29;;;;;;;14.30;8.43;;;;;;;3.04;45.29;102386.22;5050125;28;20060;-71
2022/03/23 03:11:57;;;;;;;15.30;8.88;;;;;;;3.06;45.69;102374.19;5046140;28;20060;-71
2022/03/23 03:14:25;;;;;;;15.60;8.82;;;;;;;3.04;45.38;102381.63;5050830;28;20045;-71
2022/03/23 03:16:53;;;;;;;16.40;7.78;;;;;;;3.01;45.25;102371.19;5051036;28;20495;-71
2022/03/23 03:19:21;;;;;;;17.35;8.25;;;;;;;3.03;45.56;102374.53;5037311;28;20049;-71
2022/03/23 03:21:49;;;;;;;15.07;8.23;;;;;;;3.08;44.94;102372.13;5033126;28;20053;-71
2022/03/23 03:24:18;;;;;;;11.50;7.80;;;;;;;3.09;45.71;102376.50;5050402;28;20052;-71
2022/03/23 03:26:47;;;;;;;16.17;8.65;;;;;;;3.11;45.01;102375.47;5050777;28;20056;-71
2022/03/23 03:29:15;;;;;;;13.60;7.85;;;;;;;3.05;45.11;102377.91;5050753;28;20053;-71
2022/03/23 03:31:43;;;;;;;14.45;8.45;;;;;;;3.01;45.41;102373.03;5045795;28;20054;-71
2022/03/23 03:34:11;;;;;;;15.18;8.18;;;;;;;2.96;45.70;102373.59;5046753;28;20406;-71
2022/03/23 03:36:41;;;;;;;12.32;7.10;;;;;;;2.97;45.49;102379.88;5050367;28;20053;-71
2022/03/23 03:39:09;;;;;;;15.80;7.80;;;;;;;2.94;45.64;102371.06;5051275;28;20057;-71
2022/03/23 03:41:36;;;;;;;12.10;8.18;;;;;;;2.93;45.15;102374.81;5050279;28;20049;-71
2022/03/23 03:44:05;;;;;;;12.50;7.90;;;;;;;2.92;45.71;102374.97;5017019;28;20061;-71
2022/03/23 03:46:33;;;;;;;15.93;7.85;;;;;;;2.91;45.94;102376.88;5051517;28;20045;-71
2022/03/23 03:49:02;;;;;;;15.45;8.02;;;;;;;2.90;46.23;102383.31;5051625;28;20045;-71
2022/03/23 03:51:30;;;;;;;16.40;8.07;;;;;;;2.85;46.33;102376.75;5032594;28;20061;-71
2022/03/23 03:53:58;;;;;;;15.00;8.10;;;;;;;2.80;46.71;102380.00;5038619;28;20578;-71
2022/03/23 03:56:26;;;;;;;14.27;8.15;;;;;;;2.75;46.97;102380.56;5052730;28;20415;-71
2022/03/23 03:58:54;;;;;;;12.75;7.97;;;;;;;2.73;47.47;102381.78;5054213;28;20137;-72
2022/03/23 04:01:22;;;;;;;14.88;8.73;;;;;;;2.76;47.91;102384.09;5048230;28;20491;-71
2022/03/23 04:03:50;;;;;;;16.77;7.95;;;;;;;2.74;47.85;102381.56;5053091;28;20391;-71
2022/03/23 04:06:18;;;;;;;16.10;7.70;;;;;;;2.74;47.62;102378.84;5053737;28;20045;-71
2022/03/23 04:08:46;;;;;;;13.63;7.57;;;;;;;2.70;47.76;102385.69;5037519;28;20082;-71
2022/03/23 04:11:14;;;;;;;14.77;7.75;;;;;;;2.69;47.62;102392.94;5053684;28;20368;-71
2022/03/23 04:13:42;;;;;;;13.52;8.20;;;;;;;2.68;48.19;102377.75;5054344;28;20053;-72
2022/03/23 04:16:11;;;;;;;15.43;7.97;;;;;;;2.66;48.43;102378.94;5053772;28;20068;-71
2022/03/23 04:18:39;;;;;;;16.60;8.13;;;;;;;2.66;48.42;102373.53;5054941;28;20045;-71
2022/03/23 04:21:07;;;;;;;13.80;7.78;;;;;;;2.72;48.98;102370.09;5053213;28;20483;-71
2022/03/23 04:23:35;;;;;;;15.98;7.25;;;;;;;2.76;48.53;102382.25;5053967;28;20375;-71
2022/03/23 04:26:03;;;;;;;12.10;8.07;;;;;;;2.75;48.75;102377.00;5050859;28;20037;-71
2022/03/23 04:28:31;;;;;;;14.50;8.60;;;;;;;2.72;48.90;102377.34;5054750;28;20037;-71
2022/03/23 04:31:01;;;;;;;14.05;7.43;;;;;;;2.67;49.30;102381.47;5054588;28;20041;-71
2022/03/23 04:33:29;;;;;;;19.73;8.68;;;;;;;2.63;49.55;102374.75;5053832;28;20499;-71
2022/03/23 04:35:57;;;;;;;13.95;8.38;;;;;;;2.59;49.50;102380.69;5053836;28;20048;-71
2022/03/23 04:38:26;;;;;;;14.35;8.35;;;;;;;2.55;49.92;102377.53;5053155;28;20411;-71
2022/03/23 04:40:54;;;;;;;15.98;8.35;;;;;;;2.55;49.54;102385.63;5036714;28;20044;-71
2022/03/23 04:43:22;;;;;;;16.67;9.30;;;;;;;2.53;48.94;102384.94;5054217;28;20045;-71
2022/03/23 04:45:50;;;;;;;13.60;8.38;;;;;;;2.53;49.92;102390.34;5054016;28;20204;-71
2022/03/23 04:48:18;;;;;;;13.63;7.97;;;;;;;2.59;50.46;102389.63;5054183;28;20049;-71
2022/03/23 04:50:48;;;;;;;13.55;8.52;;;;;;;2.58;50.44;102385.25;5054385;28;20045;-71
2022/03/23 04:53:17;;;;;;;12.45;8.40;;;;;;;2.61;50.42;102382.19;5052781;28;20060;-71
2022/03/23 04:55:46;;;;;;;16.10;8.63;;;;;;;2.63;50.56;102388.25;5040878;28;20402;-71
2022/03/23 04:58:14;;;;;;;17.40;8.73;;;;;;;2.57;51.24;102391.69;5048263;28;20108;-71
2022/03/23 05:00:42;;;;;;;15.30;8.75;;;;;;;2.50;51.64;102394.25;5052576;28;20049;-71
2022/03/23 05:03:13;;;;;;;14.05;8.05;;;;;;;2.47;51.62;102399.19;5052885;28;20060;-71
2022/03/23 05:05:43;;;;;;;17.10;9.38;;;;;;;2.45;51.05;102403.94;5052629;28;20045;-71
2022/03/23 05:08:12;;;;;;;15.48;8.10;;;;;;;2.45;51.79;102398.53;5052820;28;20045;-71
2022/03/23 05:10:39;;;;;;;16.38;8.68;;;;;;;2.44;52.00;102399.56;5038788;28;20057;-71
2022/03/23 05:13:07;;;;;;;18.00;9.20;;;;;;;2.40;52.36;102391.81;5025997;28;20506;-71
2022/03/23 05:15:36;;;;;;;19.83;8.65;;;;;;;2.41;52.51;102396.19;5046279;28;20049;-71
2022/03/23 05:18:05;;;;;;;15.30;8.48;;;;;;;2.47;52.72;102391.09;5052123;28;20119;-72
2022/03/23 05:20:34;;;;;;;20.15;8.35;;;;;;;2.59;52.59;102394.22;5050258;28;20402;-71
2022/03/23 05:23:02;;;;;;;13.10;8.23;;;;;;;2.63;52.46;102390.09;5050954;28;20053;-71
2022/03/23 05:25:30;;;;;;;20.35;8.38;;;;;;;2.61;52.92;102397.56;5048822;28;20052;-71
2022/03/23 05:27:59;;;;;;;12.68;8.48;;;;;;;2.56;53.07;102395.41;5053515;28;20404;-73
2022/03/23 05:30:27;;;;;;;14.35;8.30;;;;;;;2.54;53.11;102394.78;5050084;28;20064;-73
2022/03/23 05:32:54;;;;;;;19.42;8.70;;;;;;;2.64;52.99;102399.94;5051028;28;20037;-73
2022/03/23 05:35:24;;;;;;;15.88;9.20;;;;;;;2.61;52.92;102398.44;5044652;28;20049;-73
2022/03/23 05:37:52;;;;;;;20.08;9.40;;;;;;;2.63;53.30;102400.91;5048645;28;20049;-73
2022/03/23 05:40:21;;;;;;;19.02;9.23;;;;;;;2.66;53.55;102403.28;5050560;28;20487;-73
2022/03/23 05:42:50;;;;;;;20.40;8.93;;;;;;;2.70;53.47;102410.00;5039599;28;20053;-73
2022/03/23 05:45:23;;;;;;;14.98;8.82;;;;;;;2.84;52.56;102412.94;5050981;28;20510;-73
2022/03/23 05:47:53;;;;;;;20.58;10.60;;;;;;;3.00;51.41;102407.38;5051237;28;20045;-73
2022/03/23 05:50:22;;;;;;;23.23;10.13;;;;;;;3.24;52.27;102410.88;5049374;28;20053;-73
2022/03/23 05:52:50;;;;;;;22.58;9.43;;;;;;;3.43;51.86;102406.75;5048581;28;20483;-73
2022/03/23 05:55:18;;;;;;;17.85;8.90;;;;;;;3.64;50.39;102413.28;5046716;28;20048;-73
2022/03/23 05:57:46;;;;;;;20.98;10.10;;;;;;;3.92;49.94;102420.72;5054192;28;20033;-73
2022/03/23 06:00:15;;;;;;;19.48;9.60;;;;;;;4.19;49.32;102414.78;5051543;28;20063;-73
2022/03/23 06:02:48;;;;;;;18.58;9.27;;;;;;;4.35;48.03;102409.09;5050854;28;20479;-73
2022/03/23 06:05:17;;;;;;;19.67;10.00;;;;;;;4.64;47.77;102411.91;5051311;28;20051;-72
2022/03/23 06:07:46;;;;;;;20.88;9.90;;;;;;;5.09;46.92;102415.16;5052824;28;20049;-72
2022/03/23 06:10:15;;;;;;;19.60;10.10;;;;;;;5.29;47.10;102416.34;5051925;28;20399;-72
2022/03/23 06:12:43;;;;;;;19.95;10.52;;;;;;;5.51;46.51;102415.25;5048210;28;20060;-72
2022/03/23 06:15:11;;;;;;;19.23;10.52;;;;;;;5.89;45.90;102418.53;5047579;28;20060;-72
2022/03/23 06:17:39;;;;;;;21.65;10.75;;;;;;;6.13;45.61;102419.94;5043513;28;20391;-72
2022/03/23 06:20:08;;;;;;;21.75;10.20;;;;;;;6.39;44.70;102412.88;5043944;28;20041;-83
2022/03/23 06:22:37;;;;;;;17.77;11.48;;;;;;;6.61;43.74;102426.31;5017661;28;20049;-83
2022/03/23 06:25:07;;;;;;;19.00;10.90;;;;;;;6.66;44.27;102420.22;4999471;28;20064;-82
2022/03/23 06:27:36;;;;;;;22.10;10.63;;;;;;;6.80;43.19;102421.91;4994225;28;20048;-83
2022/03/23 06:30:06;;;;;;;19.85;10.60;;;;;;;6.94;42.98;102430.91;5001648;28;20045;-83
2022/03/23 06:32:34;;;;;;;23.42;10.82;;;;;;;7.04;42.23;102426.94;4996255;28;20057;-82
2022/03/23 06:35:03;;;;;;;21.88;11.07;;;;;;;7.10;42.14;102426.91;4995189;28;20634;-84
2022/03/23 06:37:32;;;;;;;18.05;11.00;;;;;;;7.31;41.41;102424.16;5007955;28;20266;-83
2022/03/23 06:40:01;;;;;;;20.42;11.00;;;;;;;7.46;40.67;102427.50;5000524;28;20041;-82
2022/03/23 06:42:30;;;;;;;24.75;11.95;;;;;;;7.66;39.14;102432.03;4990495;28;20123;-82
2022/03/23 06:44:58;;;;;;;44.50;13.40;;;;;;;7.72;40.83;102419.47;4997642;28;20505;-72
2022/03/23 06:47:26;;;;;;;21.48;10.93;;;;;;;8.02;39.03;102425.19;5051670;28;20048;-72
2022/03/23 06:49:54;;;;;;;18.95;10.40;;;;;;;8.34;38.98;102429.84;5051728;28;20529;-72
2022/03/23 06:52:22;;;;;;;24.85;11.30;;;;;;;8.58;37.59;102425.53;5033397;28;20052;-72
2022/03/23 06:54:52;;;;;;;19.65;10.68;;;;;;;8.53;36.91;102435.44;5034312;28;20044;-72
2022/03/23 06:57:20;;;;;;;17.42;11.13;;;;;;;8.62;36.58;102433.28;5051135;28;20045;-72
2022/03/23 06:59:48;;;;;;;20.05;11.13;;;;;;;8.92;35.03;102436.19;5050708;28;20505;-72
2022/03/23 07:02:16;;;;;;;19.50;10.77;;;;;;;8.93;36.21;102429.66;5051286;28;20041;-72
2022/03/23 07:04:46;;;;;;;25.77;10.15;;;;;;;9.24;33.71;102447.03;5050975;28;20064;-73
2022/03/23 07:07:16;;;;;;;19.20;9.45;;;;;;;9.19;33.69;102443.31;5050605;28;20044;-72
2022/03/23 07:09:44;;;;;;;19.35;10.30;;;;;;;9.68;34.75;102436.06;5050795;28;20052;-72
2022/03/23 07:12:12;;;;;;;22.45;11.15;;;;;;;10.20;34.80;102437.53;5049522;28;20056;-72
2022/03/23 07:14:41;;;;;;;20.85;9.88;;;;;;;9.67;34.81;102433.56;5050701;28;20491;-72
2022/03/23 07:17:09;;;;;;;20.38;10.95;;;;;;;9.68;34.55;102441.53;5050887;28;20068;-72
2022/03/23 07:19:37;;;;;;;23.92;10.77;;;;;;;10.29;33.82;102434.47;5033758;28;20045;-73
2022/03/23 07:22:05;;;;;;;17.30;10.30;;;;;;;10.15;33.76;102439.28;5051133;28;20056;-72
2022/03/23 07:24:33;;;;;;;18.55;9.75;;;;;;;10.50;33.26;102435.06;5050632;28;20053;-72
2022/03/23 07:27:07;;;;;;;16.02;9.63;;;;;;;11.07;33.36;102444.66;5051550;28;20041;-72
2022/03/23 07:29:50;;;;;;;21.17;9.67;;;;;;;11.36;32.31;102436.56;5036747;28;20056;-72
2022/03/23 07:32:18;;;;;;;18.35;10.18;;;;;;;11.56;32.16;102445.25;5054990;28;20060;-72
2022/03/23 07:34:46;;;;;;;14.65;8.90;;;;;;;11.97;31.11;102438.94;5036630;28;20045;-72
2022/03/23 07:37:15;;;;;;;15.15;9.20;;;;;;;12.26;30.38;102430.75;5054568;28;20049;-73
2022/03/23 07:39:43;;;;;;;17.65;9.88;;;;;;;12.24;30.50;102438.41;5055094;28;20060;-73
2022/03/23 07:42:11;;;;;;;19.17;10.35;;;;;;;11.55;31.23;102450.97;5055042;28;20045;-73
2022/03/23 07:44:39;;;;;;;18.00;9.77;;;;;;;12.18;30.68;102439.38;5055108;28;20052;-73
2022/03/23 07:47:10;;;;;;;17.67;10.57;;;;;;;12.06;31.18;102434.78;5054580;28;20041;-73
2022/03/23 07:49:40;;;;;;;19.52;10.07;;;;;;;12.07;31.30;102433.69;5037233;28;20045;-74
2022/03/23 07:52:09;;;;;;;18.00;10.18;;;;;;;12.27;29.73;102443.38;5040047;28;20041;-73
2022/03/23 07:54:37;;;;;;;15.35;9.15;;;;;;;12.65;30.40;102440.22;5036092;28;20411;-73
2022/03/23 07:57:06;;;;;;;22.05;10.05;;;;;;;12.89;28.94;102435.38;5054122;28;20072;-74
2022/03/23 07:59:34;;;;;;;20.75;10.52;;;;;;;12.94;28.16;102434.66;5054430;28;20376;-74
2022/03/23 08:02:02;;;;;;;22.38;10.23;;;;;;;12.58;29.77;102441.22;5054208;28;20041;-74
2022/03/23 08:04:32;;;;;;;23.35;10.75;;;;;;;13.14;28.23;102443.22;5053933;28;20049;-74
2022/03/23 08:07:01;;;;;;;16.63;9.27;;;;;;;13.59;26.80;102443.31;5054052;28;20399;-74
2022/03/23 08:09:29;;;;;;;16.92;9.68;;;;;;;13.96;26.72;102442.69;5054216;28;20495;-74
2022/03/23 08:11:58;;;;;;;23.80;10.55;;;;;;;14.19;28.02;102439.91;5054189;28;20041;-74
2022/03/23 08:14:26;;;;;;;16.98;9.70;;;;;;;14.52;25.91;102441.59;5054658;28;20049;-74
2022/03/23 08:16:54;;;;;;;20.42;10.07;;;;;;;14.64;25.70;102435.09;5054833;28;20045;-74
2022/03/23 08:19:23;;;;;;;16.00;9.15;;;;;;;13.71;27.66;102440.44;5053831;28;20048;-74
2022/03/23 08:21:52;;;;;;;16.02;9.23;;;;;;;14.22;27.56;102434.69;5053953;28;20049;-74
2022/03/23 08:24:20;;;;;;;18.05;9.10;;;;;;;14.24;26.23;102443.53;5053300;28;20044;-73
2022/03/23 08:26:49;;;;;;;17.48;8.75;;;;;;;13.95;26.82;102437.44;5053764;28;20056;-74
2022/03/23 08:29:17;;;;;;;14.93;8.60;;;;;;;14.30;26.77;102438.06;5053281;28;20045;-74
2022/03/23 08:31:44;;;;;;;16.83;8.40;;;;;;;14.56;26.43;102443.84;5052981;28;20053;-74
2022/03/23 08:34:13;;;;;;;14.38;8.25;;;;;;;14.97;25.80;102448.91;5053121;28;20522;-74
2022/03/23 08:36:41;;;;;;;14.63;8.52;;;;;;;15.26;23.76;102446.59;5053277;28;20064;-73
2022/03/23 08:39:08;;;;;;;9.43;7.57;;;;;;;15.28;22.75;102444.44;5054135;28;20502;-74
2022/03/23 08:41:37;;;;;;;12.07;7.97;;;;;;;15.16;24.46;102449.31;5034811;28;20053;-75
2022/03/23 08:44:05;;;;;;;15.40;8.27;;;;;;;15.06;24.38;102444.56;5054169;28;20049;-74
2022/03/23 08:46:35;;;;;;;12.60;7.82;;;;;;;15.49;22.90;102443.72;5053321;28;20047;-74
2022/03/23 08:49:04;;;;;;;12.77;7.65;;;;;;;15.74;23.82;102454.03;5052785;28;20510;-75
2022/03/23 08:51:32;;;;;;;12.00;7.68;;;;;;;15.52;22.84;102446.78;5054129;28;20041;-75
2022/03/23 08:53:59;;;;;;;13.45;7.68;;;;;;;15.62;22.04;102450.66;5053045;28;20494;-72
2022/03/23 08:56:28;;;;;;;11.02;7.88;;;;;;;14.96;23.74;102437.03;5052976;28;20063;-73
2022/03/23 08:58:56;;;;;;;12.57;7.65;;;;;;;15.43;23.56;102448.38;5052947;28;20499;-79
2022/03/23 09:01:23;;;;;;;12.32;8.57;;;;;;;15.55;23.50;102443.47;5035852;28;20526;-79
2022/03/23 09:03:53;;;;;;;13.05;8.93;;;;;;;15.38;23.10;102438.13;5035525;28;20052;-79
2022/03/23 09:06:21;;;;;;;13.32;8.52;;;;;;;15.66;22.99;102443.50;5035775;28;20064;-79
2022/03/23 09:08:49;;;;;;;14.32;8.20;;;;;;;15.88;22.62;102442.50;5053924;28;20398;-79
2022/03/23 09:11:17;;;;;;;12.38;8.32;;;;;;;15.99;23.10;102435.97;5053662;28;20048;-79
2022/03/23 09:13:47;;;;;;;17.25;8.55;;;;;;;16.07;21.87;102440.94;5053011;28;20056;-79
2022/03/23 09:16:15;;;;;;;16.30;8.98;;;;;;;15.72;20.68;102437.75;5035820;28;20053;-79
2022/03/23 09:18:44;;;;;;;15.82;8.30;;;;;;;16.09;20.74;102435.97;5053559;28;20045;-78
2022/03/23 09:21:13;;;;;;;12.88;8.38;;;;;;;15.79;22.54;102431.97;5053234;28;20499;-78
2022/03/23 09:23:42;;;;;;;14.77;8.32;;;;;;;16.14;23.63;102428.81;5035319;28;20403;-80
2022/03/23 09:26:11;;;;;;;17.98;9.38;;;;;;;16.24;23.10;102434.34;5034882;28;20483;-75
2022/03/23 09:28:39;;;;;;;13.25;8.57;;;;;;;16.30;22.36;102437.94;5035598;28;20041;-75
2022/03/23 09:31:07;;;;;;;11.80;8.40;;;;;;;16.22;22.35;102436.53;5052398;28;20048;-75
2022/03/23 09:33:35;;;;;;;11.15;8.27;;;;;;;16.27;22.73;102435.75;5052271;28;20068;-75
2022/03/23 09:36:03;;;;;;;11.38;8.50;;;;;;;16.88;21.59;102434.09;5035331;28;20037;-76
2022/03/23 09:38:31;;;;;;;17.20;8.80;;;;;;;16.64;22.04;102441.03;5052246;28;20495;-78
2022/03/23 09:40:59;;;;;;;15.65;8.27;;;;;;;16.87;21.47;102441.56;5052146;28;20049;-78
2022/03/23 09:43:28;;;;;;;15.32;9.55;;;;;;;17.20;21.56;102430.22;5034992;28;20045;-78
2022/03/23 09:45:56;;;;;;;13.68;9.00;;;;;;;16.86;21.56;102442.69;5051966;28;20049;-79
2022/03/23 09:48:26;;;;;;;15.18;9.15;;;;;;;16.64;21.55;102432.75;5052404;28;20049;-78
2022/03/23 09:50:55;;;;;;;14.95;9.70;;;;;;;16.99;21.39;102433.00;5021281;28;20060;-77
2022/03/23 09:53:24;;;;;;;12.85;8.93;;;;;;;17.25;20.92;102432.16;5050867;28;20055;-72
2022/03/23 09:55:53;;;;;;;13.88;9.38;;;;;;;17.10;22.07;102425.53;4988464;28;20490;-72
2022/03/23 09:58:22;;;;;;;13.30;9.50;;;;;;;17.26;21.04;102428.28;5034915;28;20513;-69
2022/03/23 10:00:53;;;;;;;14.23;8.77;;;;;;;17.57;20.89;102422.63;5052508;28;20045;-72
2022/03/23 10:03:58;;;;;;;16.50;9.57;;;;;;;17.53;20.99;102421.53;5034585;28;20045;-72
2022/03/23 10:06:35;;;;;;;21.35;10.18;;;;;;;17.60;21.17;102416.56;5052385;28;20053;-72
2022/03/23 10:09:37;;;;;;;13.65;8.85;;;;;;;17.70;20.34;102413.72;5052523;28;20521;-73
2022/03/23 10:12:14;;;;;;;19.77;8.98;;;;;;;18.01;20.22;102398.88;5041522;28;20048;-73
2022/03/23 10:14:46;;;;;;;11.32;8.50;;;;;;;17.92;20.49;102401.44;5052314;28;20041;-72
2022/03/23 10:17:32;;;;;;;14.40;8.98;;;;;;;17.52;20.52;102392.22;5052282;28;20053;-73
2022/03/23 10:20:01;;;;;;;11.68;8.73;;;;;;;17.15;21.41;102399.78;5034549;28;20045;-72
2022/03/23 10:22:30;;;;;;;16.27;8.88;;;;;;;17.16;20.98;102405.06;5052263;28;20045;-73
2022/03/23 10:25:11;;;;;;;14.18;8.45;;;;;;;18.01;20.51;102398.88;5030991;28;20045;-73
2022/03/23 10:27:39;;;;;;;13.82;9.57;;;;;;;18.04;21.43;102400.25;5032398;28;20053;-73
2022/03/23 10:30:08;;;;;;;14.27;9.18;;;;;;;18.35;20.19;102394.53;5032212;28;20044;-73
2022/03/23 10:32:38;;;;;;;14.68;8.90;;;;;;;18.89;19.55;102386.28;5032400;28;20049;-73
2022/03/23 10:35:14;;;;;;;14.93;9.45;;;;;;;19.02;20.66;102393.09;5032089;28;20048;-73
2022/03/23 10:37:48;;;;;;;13.18;8.43;;;;;;;18.63;19.92;102381.00;5031035;28;20412;-66
2022/03/23 10:40:18;;;;;;;12.70;9.13;;;;;;;19.31;19.19;102376.44;5032142;28;20049;-69
2022/03/23 10:42:50;;;;;;;12.10;8.70;;;;;;;19.06;19.60;102377.53;5032236;28;20053;-69
2022/03/23 10:45:20;;;;;;;15.35;9.07;;;;;;;18.75;20.10;102373.13;5031974;28;20398;-69
2022/03/23 10:47:49;;;;;;;11.10;8.23;;;;;;;18.76;19.91;102366.44;5032094;28;20037;-70
2022/03/23 10:50:20;;;;;;;14.07;8.77;;;;;;;18.96;19.94;102361.81;5031792;28;20045;-69
2022/03/23 10:52:55;;;;;;;12.90;8.80;;;;;;;19.14;18.77;102362.19;5032060;28;20049;-70
2022/03/23 10:55:24;;;;;;;11.63;8.45;;;;;;;19.51;18.65;102357.88;5031786;28;20131;-70
2022/03/23 10:57:58;;;;;;;12.15;8.30;;;;;;;19.05;19.29;102357.31;5030362;28;20506;-70
2022/03/23 11:00:29;;;;;;;14.10;9.07;;;;;;;19.15;19.77;102361.06;5031918;28;20111;-70
2022/03/23 11:02:58;;;;;;;13.65;9.38;;;;;;;19.16;19.73;102351.66;5031956;28;20050;-70
2022/03/23 11:05:34;;;;;;;18.63;8.55;;;;;;;18.85;20.18;102350.00;5031278;28;20045;-70
2022/03/23 11:08:22;;;;;;;10.93;8.60;;;;;;;18.91;18.94;102348.00;5031442;28;20045;-70
2022/03/23 11:15:46;;;;;;;15.77;9.30;;;;;;;19.69;19.83;102344.28;5031234;28;20518;-70
2022/03/23 11:16:51;;;;;;;10.85;8.77;;;;;;;20.12;17.44;102343.41;5023474;28;20463;-70
2022/03/23 11:19:23;;;;;;;12.98;8.43;;;;;;;20.36;17.63;102339.69;5017841;28;20053;-70
2022/03/23 11:21:57;;;;;;;14.20;8.50;;;;;;;20.25;17.66;102339.03;5031358;28;20484;-70
2022/03/23 11:24:28;;;;;;;18.35;9.30;;;;;;;20.12;18.36;102340.63;5036768;28;20526;-70
2022/03/23 11:26:56;;;;;;;11.07;8.40;;;;;;;19.67;18.54;102333.50;5041095;28;20507;-70
2022/03/23 11:29:24;;;;;;;13.43;9.32;;;;;;;20.07;17.67;102327.66;5042731;28;20479;-70
2022/03/23 11:31:53;;;;;;;15.43;8.82;;;;;;;20.02;18.85;102327.72;5032560;28;20053;-70
2022/03/23 11:34:24;;;;;;;12.02;9.23;;;;;;;20.10;18.15;102326.22;5047440;28;20483;-70
2022/03/23 11:36:53;;;;;;;12.48;8.75;;;;;;;20.26;17.57;102313.72;5032252;28;20395;-70
2022/03/23 11:39:22;;;;;;;12.20;8.52;;;;;;;19.46;19.14;102310.75;5033150;28;20049;-70
2022/03/23 11:41:53;;;;;;;15.60;8.35;;;;;;;20.33;18.17;102304.97;5032837;28;20046;-70